createdAt,value
2022-09-18T00:01:10.090Z,2.60
2022-09-18T00:03:37.455Z,1.70
2022-09-18T00:06:13.016Z,2.00
2022-09-18T00:08:40.653Z,1.97
2022-09-18T00:11:08.764Z,2.00
2022-09-18T00:13:37.329Z,1.80
2022-09-18T00:16:05.398Z,2.07
2022-09-18T00:18:32.917Z,2.40
2022-09-18T00:21:04.507Z,2.37
2022-09-18T00:23:31.847Z,2.33
2022-09-18T00:25:59.024Z,1.97
2022-09-18T00:28:26.674Z,2.10
2022-09-18T00:30:54.076Z,2.27
2022-09-18T00:33:21.386Z,1.77
2022-09-18T00:35:48.735Z,2.10
2022-09-18T00:38:16.110Z,2.00
2022-09-18T00:40:43.454Z,2.00
2022-09-18T00:43:20.872Z,2.07
2022-09-18T00:45:53.237Z,1.90
2022-09-18T00:48:20.922Z,2.30
2022-09-18T00:50:48.249Z,2.00
2022-09-18T00:53:15.716Z,2.30
2022-09-18T00:55:43.116Z,2.07
2022-09-18T00:58:10.591Z,2.07
2022-09-18T01:00:38.575Z,2.10
2022-09-18T01:03:06.125Z,1.90
2022-09-18T01:05:48.411Z,1.90
2022-09-18T01:08:22.194Z,2.10
2022-09-18T01:10:53.515Z,2.07
2022-09-18T01:13:26.955Z,1.70
2022-09-18T01:16:02.672Z,1.90
2022-09-18T01:18:35.953Z,2.00
2022-09-18T01:21:09.623Z,2.20
2022-09-18T01:23:48.464Z,1.80
2022-09-18T01:26:34.601Z,1.70
2022-09-18T01:29:07.411Z,1.60
2022-09-18T01:31:46.436Z,1.60
2022-09-18T01:34:32.692Z,1.80
2022-09-18T01:37:04.541Z,1.70
2022-09-18T01:39:37.245Z,1.70
2022-09-18T01:42:05.965Z,1.40
2022-09-18T01:44:34.434Z,1.50
2022-09-18T01:47:04.053Z,1.57
2022-09-18T01:49:34.335Z,1.70
2022-09-18T01:52:04.552Z,1.63
2022-09-18T01:54:34.154Z,1.73
2022-09-18T01:57:16.731Z,1.60
2022-09-18T01:59:46.325Z,1.70
2022-09-18T02:02:20.905Z,1.70
2022-09-18T02:04:50.975Z,1.83
2022-09-18T02:07:45.031Z,1.30
2022-09-18T02:10:15.085Z,1.90
2022-09-18T02:12:44.236Z,1.87
2022-09-18T02:15:13.416Z,1.83
2022-09-18T02:18:03.893Z,1.90
2022-09-18T02:20:31.923Z,1.40
2022-09-18T02:23:01.312Z,1.80
2022-09-18T02:25:31.397Z,1.80
2022-09-18T02:27:58.908Z,2.10
2022-09-18T02:30:26.934Z,1.90
2022-09-18T02:32:55.006Z,2.07
2022-09-18T02:35:23.987Z,2.00
2022-09-18T02:37:55.616Z,1.90
2022-09-18T02:40:31.630Z,2.10
2022-09-18T02:43:05.616Z,1.90
2022-09-18T02:45:35.963Z,2.17
2022-09-18T02:48:03.193Z,1.87
2022-09-18T02:50:53.542Z,2.10
2022-09-18T02:53:30.699Z,2.40
2022-09-18T02:56:07.528Z,2.23
2022-09-18T02:58:56.827Z,2.10
2022-09-18T03:01:26.791Z,1.90
2022-09-18T03:03:54.172Z,2.10
2022-09-18T03:06:21.412Z,2.60
2022-09-18T03:08:50.097Z,2.10
2022-09-18T03:11:17.471Z,2.17
2022-09-18T03:13:44.711Z,2.00
2022-09-18T03:16:11.981Z,1.80
2022-09-18T03:18:39.369Z,2.20
2022-09-18T03:21:07.257Z,1.73
2022-09-18T03:23:34.545Z,2.20
2022-09-18T03:26:01.745Z,2.00
2022-09-18T03:28:31.547Z,2.20
2022-09-18T03:30:58.823Z,2.07
2022-09-18T03:33:26.051Z,2.53
2022-09-18T03:35:53.262Z,2.00
2022-09-18T03:38:20.576Z,2.20
2022-09-18T03:40:48.150Z,1.83
2022-09-18T03:43:15.517Z,1.50
2022-09-18T03:45:43.935Z,1.90
2022-09-18T03:48:11.153Z,1.80
2022-09-18T03:50:38.389Z,1.60
2022-09-18T03:53:05.695Z,1.43
2022-09-18T03:55:33.841Z,1.90
2022-09-18T03:58:01.065Z,1.53
2022-09-18T04:00:28.658Z,1.67
2022-09-18T04:02:55.882Z,1.53
2022-09-18T04:05:23.241Z,1.83
2022-09-18T04:07:50.534Z,1.40
2022-09-18T04:10:17.909Z,1.40
2022-09-18T04:12:47.784Z,1.50
2022-09-18T04:15:15.741Z,1.80
2022-09-18T04:17:43.407Z,1.80
2022-09-18T04:20:10.855Z,1.50
2022-09-18T04:22:38.508Z,1.93
2022-09-18T04:25:06.662Z,1.93
2022-09-18T04:27:35.145Z,1.93
2022-09-18T04:30:02.424Z,1.80
2022-09-18T04:32:29.676Z,2.00
2022-09-18T04:34:56.973Z,1.90
2022-09-18T04:37:24.489Z,2.10
2022-09-18T04:39:51.783Z,1.80
2022-09-18T04:42:19.050Z,2.17
2022-09-18T04:44:47.275Z,2.20
2022-09-18T04:47:14.561Z,2.17
2022-09-18T04:49:41.852Z,2.30
2022-09-18T04:52:09.044Z,2.33
2022-09-18T04:54:36.663Z,2.10
2022-09-18T04:57:04.041Z,2.00
2022-09-18T04:59:31.316Z,2.23
2022-09-18T05:01:58.624Z,2.47
2022-09-18T05:04:26.185Z,2.30
2022-09-18T05:06:53.588Z,2.00
2022-09-18T05:09:20.847Z,2.70
2022-09-18T05:11:48.112Z,2.40
2022-09-18T05:14:15.657Z,2.73
2022-09-18T05:16:42.880Z,2.50
2022-09-18T05:19:10.166Z,2.40
2022-09-18T05:21:37.358Z,2.23
2022-09-18T05:24:04.634Z,2.20
2022-09-18T05:26:32.247Z,2.40
2022-09-18T05:28:59.450Z,2.13
2022-09-18T05:31:26.716Z,2.27
2022-09-18T05:33:54.281Z,2.00
2022-09-18T05:36:21.613Z,2.27
2022-09-18T05:38:48.959Z,2.40
2022-09-18T05:41:16.205Z,2.20
2022-09-18T05:43:46.724Z,2.30
2022-09-18T05:46:15.017Z,2.43
2022-09-18T05:48:43.004Z,2.10
2022-09-18T05:51:10.257Z,2.60
2022-09-18T05:53:37.434Z,2.50
2022-09-18T05:56:04.671Z,2.30
2022-09-18T05:58:31.981Z,2.60
2022-09-18T06:01:01.331Z,2.60
2022-09-18T06:03:28.625Z,2.80
2022-09-18T06:05:56.362Z,2.80
2022-09-18T06:08:23.530Z,2.27
2022-09-18T06:10:52.001Z,2.30
2022-09-18T06:13:19.926Z,2.17
2022-09-18T06:15:48.131Z,2.13
2022-09-18T06:18:15.645Z,2.10
2022-09-18T06:20:43.525Z,2.17
2022-09-18T06:23:10.877Z,2.20
2022-09-18T06:25:38.194Z,2.30
2022-09-18T06:28:07.037Z,2.20
2022-09-18T06:30:35.991Z,2.10
2022-09-18T06:33:05.202Z,2.23
2022-09-18T06:35:36.106Z,2.00
2022-09-18T06:38:04.186Z,1.93
2022-09-18T06:40:32.067Z,1.70
2022-09-18T06:43:01.671Z,1.80
2022-09-18T06:45:29.517Z,2.20
2022-09-18T06:47:56.811Z,2.03
2022-09-18T06:50:24.711Z,1.80
2022-09-18T06:52:52.325Z,1.70
2022-09-18T06:55:19.583Z,1.50
2022-09-18T06:57:56.820Z,1.47
2022-09-18T07:00:24.564Z,1.50
2022-09-18T07:02:56.191Z,1.40
2022-09-18T07:05:23.404Z,1.60
2022-09-18T07:07:50.710Z,1.33
2022-09-18T07:10:17.901Z,1.60
2022-09-18T07:12:51.444Z,1.57
2022-09-18T07:15:20.029Z,1.50
2022-09-18T07:17:47.321Z,1.77
2022-09-18T07:20:15.165Z,1.37
2022-09-18T07:22:47.071Z,1.27
2022-09-18T07:25:14.771Z,1.70
2022-09-18T07:27:41.953Z,1.37
2022-09-18T07:30:09.553Z,1.63
2022-09-18T07:32:37.326Z,1.37
2022-09-18T07:35:04.676Z,1.40
2022-09-18T07:37:33.613Z,1.50
2022-09-18T07:40:00.811Z,1.13
2022-09-18T07:42:28.796Z,1.10
2022-09-18T07:44:56.161Z,1.20
2022-09-18T07:47:25.345Z,1.20
2022-09-18T07:49:52.513Z,1.20
2022-09-18T07:52:19.761Z,1.93
2022-09-18T07:54:46.982Z,1.00
2022-09-18T07:57:17.345Z,1.40
2022-09-18T07:59:44.593Z,1.20
2022-09-18T08:02:12.750Z,1.17
2022-09-18T08:04:40.152Z,1.20
2022-09-18T08:07:07.981Z,1.23
2022-09-18T08:09:35.142Z,1.07
2022-09-18T08:12:03.557Z,1.10
2022-09-18T08:14:33.897Z,1.00
2022-09-18T08:17:01.105Z,1.00
2022-09-18T08:19:28.397Z,0.87
2022-09-18T08:21:55.655Z,1.20
2022-09-18T08:24:22.899Z,1.20
2022-09-18T08:26:50.191Z,1.50
2022-09-18T08:29:20.521Z,1.10
2022-09-18T08:31:48.074Z,1.53
2022-09-18T08:34:15.495Z,1.10
2022-09-18T08:36:42.721Z,1.23
2022-09-18T08:39:10.311Z,1.40
2022-09-18T08:41:46.763Z,1.10
2022-09-18T08:44:20.197Z,1.10
2022-09-18T08:46:50.586Z,1.10
2022-09-18T08:49:17.798Z,0.90
2022-09-18T08:51:55.701Z,1.40
2022-09-18T08:54:27.575Z,1.10
2022-09-18T08:56:55.940Z,1.20
2022-09-18T08:59:46.440Z,1.07
2022-09-18T09:02:14.433Z,1.50
2022-09-18T09:04:41.760Z,1.10
2022-09-18T09:07:21.232Z,0.90
2022-09-18T09:09:57.589Z,1.23
2022-09-18T09:12:43.559Z,1.10
2022-09-18T09:15:21.337Z,1.30
2022-09-18T09:17:49.986Z,1.20
2022-09-18T09:20:22.909Z,1.10
2022-09-18T09:22:53.186Z,1.00
2022-09-18T09:25:23.769Z,1.10
2022-09-18T09:27:57.123Z,1.20
2022-09-18T09:30:26.845Z,1.10
2022-09-18T09:33:17.200Z,1.20
2022-09-18T09:35:49.095Z,1.33
2022-09-18T09:38:35.185Z,1.30
2022-09-18T09:41:22.804Z,1.37
2022-09-18T09:44:25.552Z,1.23
2022-09-18T09:47:11.650Z,1.23
2022-09-18T09:49:51.924Z,1.17
2022-09-18T09:52:26.995Z,1.40
2022-09-18T09:54:58.193Z,1.30
2022-09-18T09:57:44.484Z,1.10
2022-09-18T10:00:17.924Z,1.37
2022-09-18T10:03:03.951Z,1.40
2022-09-18T10:05:38.730Z,1.30
2022-09-18T10:08:10.560Z,1.20
2022-09-18T10:10:43.193Z,1.30
2022-09-18T10:13:17.369Z,1.57
2022-09-18T10:15:50.394Z,1.40
2022-09-18T10:18:26.093Z,1.30
2022-09-18T10:20:58.358Z,1.10
2022-09-18T10:23:45.206Z,1.10
2022-09-18T10:26:15.834Z,1.03
2022-09-18T10:28:43.357Z,1.20
2022-09-18T10:31:12.368Z,1.13
2022-09-18T10:33:42.947Z,2.30
2022-09-18T10:36:42.752Z,1.20
2022-09-18T10:39:31.407Z,1.60
2022-09-18T10:42:06.397Z,1.13
2022-09-18T10:44:38.119Z,1.20
2022-09-18T10:47:08.520Z,2.07
2022-09-18T10:49:37.151Z,1.23
2022-09-18T10:52:22.952Z,1.13
2022-09-18T10:55:09.018Z,1.10
2022-09-18T10:57:51.879Z,1.27
2022-09-18T11:00:22.702Z,1.50
2022-09-18T11:03:00.985Z,1.10
2022-09-18T11:05:31.514Z,1.23
2022-09-18T11:08:02.039Z,1.70
2022-09-18T11:10:33.274Z,1.30
2022-09-18T11:13:02.277Z,1.10
2022-09-18T11:15:33.309Z,1.23
2022-09-18T11:18:02.631Z,2.00
2022-09-18T11:20:31.251Z,1.57
2022-09-18T11:23:16.035Z,1.30
2022-09-18T11:25:45.702Z,1.33
2022-09-18T11:28:34.200Z,1.20
2022-09-18T11:31:12.352Z,1.20
2022-09-18T11:33:51.187Z,1.37
2022-09-18T11:36:24.881Z,1.00
2022-09-18T11:38:52.416Z,1.30
2022-09-18T11:41:27.177Z,1.20
2022-09-18T11:44:05.458Z,1.57
2022-09-18T11:46:42.089Z,1.40
2022-09-18T11:49:12.040Z,1.17
2022-09-18T11:52:00.664Z,1.00
2022-09-18T11:54:34.767Z,1.10
2022-09-18T11:57:03.919Z,1.10
2022-09-18T11:59:45.538Z,0.90
2022-09-18T12:02:20.441Z,0.97
2022-09-18T12:04:49.331Z,1.20
2022-09-18T12:07:37.477Z,1.00
2022-09-18T12:10:23.647Z,1.43
2022-09-18T12:13:00.259Z,0.93
2022-09-18T12:15:31.144Z,0.90
2022-09-18T12:18:03.651Z,1.20
2022-09-18T12:20:40.777Z,1.77
2022-09-18T12:23:13.026Z,1.23
2022-09-18T12:25:59.137Z,1.20
2022-09-18T12:28:29.417Z,1.10
2022-09-18T12:31:06.453Z,1.10
2022-09-18T12:33:42.994Z,1.63
2022-09-18T12:36:13.447Z,2.23
2022-09-18T12:38:57.029Z,1.30
2022-09-18T12:41:30.480Z,1.10
2022-09-18T12:44:07.625Z,1.20
2022-09-18T12:46:34.808Z,1.40
2022-09-18T12:49:02.206Z,1.33
2022-09-18T12:51:29.425Z,1.67
2022-09-18T12:54:15.419Z,1.10
2022-09-18T12:57:06.020Z,1.03
2022-09-18T12:59:48.267Z,0.90
2022-09-18T13:02:47.120Z,0.80
2022-09-18T13:05:18.165Z,0.87
2022-09-18T13:07:51.688Z,0.80
2022-09-18T13:10:24.032Z,1.33
2022-09-18T13:13:10.016Z,1.00
2022-09-18T13:15:41.533Z,0.93
2022-09-18T13:18:20.446Z,0.83
2022-09-18T13:20:47.830Z,0.87
2022-09-18T13:23:38.680Z,0.97
2022-09-18T13:26:07.721Z,2.07
2022-09-18T13:28:35.089Z,1.10
2022-09-18T13:31:21.377Z,1.00
2022-09-18T13:33:59.736Z,0.90
2022-09-18T13:36:32.993Z,1.00
2022-09-18T13:39:05.841Z,1.23
2022-09-18T13:41:45.465Z,1.40
2022-09-18T13:44:20.625Z,1.40
2022-09-18T13:46:49.173Z,1.10
2022-09-18T13:49:19.556Z,1.00
2022-09-18T13:51:46.887Z,1.10
2022-09-18T13:54:30.804Z,1.10
2022-09-18T13:57:10.872Z,1.20
2022-09-18T13:59:59.146Z,1.00
2022-09-18T14:02:27.106Z,1.37
2022-09-18T14:05:03.554Z,1.00
2022-09-18T14:07:33.922Z,1.00
2022-09-18T14:10:21.543Z,1.03
2022-09-18T14:13:04.330Z,1.10
2022-09-18T14:15:31.866Z,1.00
2022-09-18T14:18:07.944Z,1.20
2022-09-18T14:20:35.535Z,1.33
2022-09-18T14:23:21.654Z,1.40
2022-09-18T14:25:49.686Z,1.20
2022-09-18T14:28:21.324Z,1.10
2022-09-18T14:31:08.498Z,1.13
2022-09-18T14:33:35.927Z,1.00
2022-09-18T14:36:08.123Z,1.10
2022-09-18T14:38:38.735Z,1.30
2022-09-18T14:41:19.121Z,1.20
2022-09-18T14:43:51.837Z,1.30
2022-09-18T14:46:20.222Z,1.20
2022-09-18T14:48:47.556Z,1.20
2022-09-18T14:51:19.742Z,1.50
2022-09-18T14:53:49.996Z,1.17
2022-09-18T14:56:20.101Z,1.40
2022-09-18T14:58:50.608Z,1.30
2022-09-18T15:01:29.184Z,1.30
2022-09-18T15:03:57.618Z,0.90
2022-09-18T15:06:28.308Z,1.20
2022-09-18T15:08:56.689Z,1.10
2022-09-18T15:11:31.995Z,0.97
2022-09-18T15:14:04.905Z,1.00
2022-09-18T15:16:33.788Z,1.20
2022-09-18T15:19:01.135Z,1.10
2022-09-18T15:21:32.831Z,1.00
2022-09-18T15:24:02.352Z,1.00
2022-09-18T15:26:52.275Z,1.03
2022-09-18T15:29:43.130Z,1.03
2022-09-18T15:32:12.384Z,0.90
2022-09-18T15:34:47.160Z,1.10
2022-09-18T15:37:19.516Z,1.10
2022-09-18T15:39:52.869Z,1.20
2022-09-18T15:42:34.143Z,1.17
2022-09-18T15:45:01.386Z,1.30
2022-09-18T15:47:28.567Z,0.87
2022-09-18T15:49:56.435Z,1.13
2022-09-18T15:52:42.313Z,1.10
2022-09-18T15:55:22.692Z,0.90
2022-09-18T15:58:13.009Z,1.07
2022-09-18T16:00:40.241Z,1.10
2022-09-18T16:03:09.464Z,0.90
2022-09-18T16:05:39.335Z,1.07
2022-09-18T16:08:08.425Z,1.00
2022-09-18T16:10:36.441Z,1.10
2022-09-18T16:13:07.754Z,1.10
2022-09-18T16:15:35.687Z,0.97
2022-09-18T16:18:06.053Z,1.30
2022-09-18T16:20:36.359Z,1.30
2022-09-18T16:23:06.810Z,0.80
2022-09-18T16:25:37.598Z,0.90
2022-09-18T16:28:08.028Z,1.53
2022-09-18T16:30:37.321Z,1.00
2022-09-18T16:33:18.788Z,1.10
2022-09-18T16:35:46.643Z,1.10
2022-09-18T16:38:14.538Z,1.00
2022-09-18T16:40:43.519Z,1.10
2022-09-18T16:43:10.966Z,1.13
2022-09-18T16:45:38.240Z,1.10
2022-09-18T16:48:06.031Z,1.07
2022-09-18T16:50:33.846Z,1.30
2022-09-18T16:53:01.715Z,1.17
2022-09-18T16:55:29.652Z,1.10
2022-09-18T16:57:57.528Z,1.10
2022-09-18T17:00:25.470Z,1.10
2022-09-18T17:02:53.010Z,1.10
2022-09-18T17:05:20.324Z,1.30
2022-09-18T17:07:47.582Z,1.00
2022-09-18T17:10:15.060Z,1.00
2022-09-18T17:12:42.955Z,0.90
2022-09-18T17:15:10.345Z,1.20
2022-09-18T17:17:37.747Z,1.10
2022-09-18T17:20:05.831Z,1.17
2022-09-18T17:22:33.300Z,1.10
2022-09-18T17:25:00.959Z,1.00
2022-09-18T17:27:28.312Z,0.80
2022-09-18T17:29:55.536Z,1.10
2022-09-18T17:32:22.787Z,1.13
2022-09-18T17:34:50.024Z,0.90
2022-09-18T17:37:17.648Z,0.80
2022-09-18T17:39:46.302Z,0.90
2022-09-18T17:42:14.899Z,0.90
2022-09-18T17:44:42.385Z,0.90
2022-09-18T17:47:09.712Z,0.93
2022-09-18T17:49:37.085Z,0.90
2022-09-18T17:52:05.821Z,1.00
2022-09-18T17:54:34.492Z,1.10
2022-09-18T17:57:01.712Z,0.93
2022-09-18T17:59:30.014Z,1.20
2022-09-18T18:01:57.324Z,1.17
2022-09-18T18:04:24.560Z,0.90
2022-09-18T18:06:51.946Z,0.90
2022-09-18T18:09:19.255Z,1.20
2022-09-18T18:11:46.765Z,1.10
2022-09-18T18:14:14.605Z,1.00
2022-09-18T18:16:41.996Z,1.10
2022-09-18T18:19:12.186Z,1.10
2022-09-18T18:21:43.065Z,1.03
2022-09-18T18:24:15.306Z,0.90
2022-09-18T18:26:43.003Z,1.00
2022-09-18T18:29:11.759Z,1.20
2022-09-18T18:31:40.600Z,1.10
2022-09-18T18:34:10.777Z,1.07
2022-09-18T18:36:39.153Z,1.07
2022-09-18T18:39:09.994Z,1.00
2022-09-18T18:41:37.732Z,1.07
2022-09-18T18:44:05.841Z,0.80
2022-09-18T18:46:35.952Z,1.10
2022-09-18T18:49:05.726Z,1.00
2022-09-18T18:51:36.299Z,1.30
2022-09-18T18:54:04.154Z,1.10
2022-09-18T18:56:34.025Z,1.07
2022-09-18T18:59:03.417Z,1.00
2022-09-18T19:01:31.610Z,1.10
2022-09-18T19:04:02.614Z,0.90
2022-09-18T19:06:30.560Z,1.10
2022-09-18T19:08:59.018Z,1.07
2022-09-18T19:11:27.056Z,1.23
2022-09-18T19:13:56.920Z,1.13
2022-09-18T19:16:25.619Z,1.10
2022-09-18T19:18:53.558Z,1.30
2022-09-18T19:21:22.273Z,1.30
2022-09-18T19:23:53.989Z,1.20
2022-09-18T19:26:21.714Z,1.13
2022-09-18T19:28:49.781Z,1.00
2022-09-18T19:31:18.100Z,1.17
2022-09-18T19:33:45.393Z,1.07
2022-09-18T19:36:12.695Z,1.30
2022-09-18T19:38:39.880Z,1.20
2022-09-18T19:41:09.172Z,1.40
2022-09-18T19:43:37.268Z,1.30
2022-09-18T19:46:07.107Z,1.00
2022-09-18T19:48:34.593Z,1.23
2022-09-18T19:51:02.384Z,1.00
2022-09-18T19:53:29.627Z,1.40
2022-09-18T19:55:57.913Z,1.20
2022-09-18T19:58:25.997Z,1.30
2022-09-18T20:00:53.271Z,1.47
2022-09-18T20:03:21.233Z,1.07
2022-09-18T20:05:48.432Z,1.10
2022-09-18T20:08:15.748Z,1.10
2022-09-18T20:10:43.066Z,1.60
2022-09-18T20:13:11.540Z,1.07
2022-09-18T20:15:39.289Z,1.27
2022-09-18T20:18:07.493Z,1.60
2022-09-18T20:20:37.474Z,1.87
2022-09-18T20:23:07.597Z,1.30
2022-09-18T20:25:35.677Z,1.50
2022-09-18T20:28:03.011Z,1.10
2022-09-18T20:30:30.393Z,1.20
2022-09-18T20:32:57.668Z,1.80
2022-09-18T20:35:24.910Z,1.23
2022-09-18T20:37:52.555Z,1.40
2022-09-18T20:40:19.985Z,1.30
2022-09-18T20:42:51.276Z,1.63
2022-09-18T20:45:19.482Z,1.53
2022-09-18T20:47:47.240Z,1.30
2022-09-18T20:50:15.004Z,1.40
2022-09-18T20:52:43.742Z,1.40
2022-09-18T20:55:12.519Z,1.67
2022-09-18T20:57:40.617Z,1.50
2022-09-18T21:00:10.078Z,1.50
2022-09-18T21:02:38.358Z,1.60
2022-09-18T21:05:14.703Z,2.07
2022-09-18T21:07:45.681Z,1.60
2022-09-18T21:10:13.693Z,1.53
2022-09-18T21:12:41.344Z,1.50
2022-09-18T21:15:16.731Z,1.40
2022-09-18T21:17:43.950Z,1.70
2022-09-18T21:20:12.174Z,1.93
2022-09-18T21:22:58.123Z,1.70
2022-09-18T21:25:25.448Z,1.57
2022-09-18T21:27:55.798Z,1.60
2022-09-18T21:30:26.742Z,1.60
2022-09-18T21:32:55.778Z,1.83
2022-09-18T21:35:23.220Z,1.70
2022-09-18T21:37:52.048Z,1.97
2022-09-18T21:40:19.334Z,1.57
2022-09-18T21:42:47.627Z,1.53
2022-09-18T21:45:20.722Z,1.60
2022-09-18T21:47:48.251Z,1.50
2022-09-18T21:50:15.553Z,1.67
2022-09-18T21:52:44.320Z,1.57
2022-09-18T21:55:11.665Z,1.83
2022-09-18T21:57:39.005Z,1.70
2022-09-18T22:00:08.438Z,1.43
2022-09-18T22:02:36.535Z,1.70
2022-09-18T22:05:11.682Z,1.47
2022-09-18T22:07:39.013Z,1.60
2022-09-18T22:10:06.674Z,1.47
2022-09-18T22:12:34.260Z,1.50
2022-09-18T22:15:01.484Z,1.67
2022-09-18T22:17:28.749Z,1.23
2022-09-18T22:19:56.935Z,1.60
2022-09-18T22:22:24.201Z,1.40
2022-09-18T22:24:51.508Z,1.40
2022-09-18T22:27:18.747Z,1.50
2022-09-18T22:29:46.062Z,1.50
2022-09-18T22:32:13.456Z,1.60
2022-09-18T22:34:41.751Z,1.20
2022-09-18T22:37:10.825Z,1.20
2022-09-18T22:39:38.386Z,1.20
2022-09-18T22:42:05.733Z,1.20
2022-09-18T22:44:33.062Z,1.40
2022-09-18T22:47:02.143Z,1.30
2022-09-18T22:49:29.409Z,1.10
2022-09-18T22:51:57.309Z,1.57
2022-09-18T22:54:25.960Z,1.70
2022-09-18T22:56:53.519Z,1.40
2022-09-18T22:59:22.014Z,1.47
2022-09-18T23:01:51.691Z,1.23
2022-09-18T23:04:20.365Z,1.50
2022-09-18T23:06:48.533Z,1.50
2022-09-18T23:09:16.858Z,1.67
2022-09-18T23:11:45.063Z,1.43
2022-09-18T23:14:17.161Z,1.47
2022-09-18T23:16:44.838Z,1.50
2022-09-18T23:19:15.223Z,1.37
2022-09-18T23:21:42.520Z,1.20
2022-09-18T23:24:10.610Z,1.30
2022-09-18T23:26:39.355Z,1.30
2022-09-18T23:29:08.344Z,1.40
2022-09-18T23:31:36.699Z,1.37
2022-09-18T23:34:06.180Z,1.60
2022-09-18T23:36:38.143Z,1.47
2022-09-18T23:39:12.000Z,1.30
2022-09-18T23:41:39.728Z,1.40
2022-09-18T23:44:08.131Z,1.50
2022-09-18T23:46:35.637Z,1.40
2022-09-18T23:49:03.291Z,1.60
2022-09-18T23:51:32.387Z,1.43
2022-09-18T23:54:01.264Z,1.30
2022-09-18T23:56:29.670Z,1.50
2022-09-18T23:58:57.790Z,1.30
